sensor_id;sensor_type;location;lat;lon;timestamp;temperature;humidity
5118;DHT22;2578;51.622;7.046;2023-04-16T00:01:38;7.50;99.90
5118;DHT22;2578;51.622;7.046;2023-04-16T00:04:03;7.50;99.90
5118;DHT22;2578;51.622;7.046;2023-04-16T00:06:29;7.50;99.90
5118;DHT22;2578;51.622;7.046;2023-04-16T00:08:55;8.10;99.90
5118;DHT22;2578;51.622;7.046;2023-04-16T00:11:21;7.50;99.90
5118;DHT22;2578;51.622;7.046;2023-04-16T00:13:46;7.50;99.90
5118;DHT22;2578;51.622;7.046;2023-04-16T00:16:12;7.50;99.90
5118;DHT22;2578;51.622;7.046;2023-04-16T00:18:37;7.50;99.90
5118;DHT22;2578;51.622;7.046;2023-04-16T00:21:03;7.70;99.90
5118;DHT22;2578;51.622;7.046;2023-04-16T00:23:29;7.60;99.90
5118;DHT22;2578;51.622;7.046;2023-04-16T00:25:55;7.50;99.90
5118;DHT22;2578;51.622;7.046;2023-04-16T00:28:24;7.50;99.90
5118;DHT22;2578;51.622;7.046;2023-04-16T00:30:50;7.70;99.90
5118;DHT22;2578;51.622;7.046;2023-04-16T00:33:16;7.50;99.90
5118;DHT22;2578;51.622;7.046;2023-04-16T00:35:44;7.50;99.90
5118;DHT22;2578;51.622;7.046;2023-04-16T00:38:10;7.50;99.90
5118;DHT22;2578;51.622;7.046;2023-04-16T00:40:36;7.60;99.90
5118;DHT22;2578;51.622;7.046;2023-04-16T00:43:02;7.50;99.90
5118;DHT22;2578;51.622;7.046;2023-04-16T00:45:27;9.40;99.90
5118;DHT22;2578;51.622;7.046;2023-04-16T00:47:54;7.60;99.90
5118;DHT22;2578;51.622;7.046;2023-04-16T00:52:47;7.60;99.90
5118;DHT22;2578;51.622;7.046;2023-04-16T00:55:14;7.90;99.90
5118;DHT22;2578;51.622;7.046;2023-04-16T00:57:42;7.60;99.90
5118;DHT22;2578;51.622;7.046;2023-04-16T01:00:09;7.60;99.90
5118;DHT22;2578;51.622;7.046;2023-04-16T01:02:35;7.60;99.90
5118;DHT22;2578;51.622;7.046;2023-04-16T01:05:01;7.60;99.90
5118;DHT22;2578;51.622;7.046;2023-04-16T01:07:27;7.60;99.90
5118;DHT22;2578;51.622;7.046;2023-04-16T01:09:53;7.60;99.90
5118;DHT22;2578;51.622;7.046;2023-04-16T01:12:19;7.60;99.90
5118;DHT22;2578;51.622;7.046;2023-04-16T01:14:44;7.60;99.90
5118;DHT22;2578;51.622;7.046;2023-04-16T01:17:10;7.60;99.90
5118;DHT22;2578;51.622;7.046;2023-04-16T01:19:36;7.70;99.90
5118;DHT22;2578;51.622;7.046;2023-04-16T01:22:03;7.60;99.90
5118;DHT22;2578;51.622;7.046;2023-04-16T01:24:29;7.60;99.90
5118;DHT22;2578;51.622;7.046;2023-04-16T01:26:57;7.60;99.90
5118;DHT22;2578;51.622;7.046;2023-04-16T01:29:23;8.10;99.90
5118;DHT22;2578;51.622;7.046;2023-04-16T01:31:48;7.60;99.90
5118;DHT22;2578;51.622;7.046;2023-04-16T01:34:14;8.00;99.90
5118;DHT22;2578;51.622;7.046;2023-04-16T01:36:40;7.70;99.90
5118;DHT22;2578;51.622;7.046;2023-04-16T01:39:05;7.70;99.90
5118;DHT22;2578;51.622;7.046;2023-04-16T01:41:31;7.70;99.90
5118;DHT22;2578;51.622;7.046;2023-04-16T01:43:57;7.70;99.90
5118;DHT22;2578;51.622;7.046;2023-04-16T01:46:26;7.70;99.90
5118;DHT22;2578;51.622;7.046;2023-04-16T01:48:53;7.70;99.90
5118;DHT22;2578;51.622;7.046;2023-04-16T01:51:20;7.70;99.90
5118;DHT22;2578;51.622;7.046;2023-04-16T01:53:45;7.70;99.90
5118;DHT22;2578;51.622;7.046;2023-04-16T01:58:37;7.70;99.90
5118;DHT22;2578;51.622;7.046;2023-04-16T02:01:04;7.70;99.90
5118;DHT22;2578;51.622;7.046;2023-04-16T02:03:30;7.80;99.90
5118;DHT22;2578;51.622;7.046;2023-04-16T02:05:56;9.00;99.90
5118;DHT22;2578;51.622;7.046;2023-04-16T02:08:22;9.00;99.90
5118;DHT22;2578;51.622;7.046;2023-04-16T02:10:51;8.60;99.90
5118;DHT22;2578;51.622;7.046;2023-04-16T02:13:16;9.40;99.90
5118;DHT22;2578;51.622;7.046;2023-04-16T02:15:49;7.90;99.90
5118;DHT22;2578;51.622;7.046;2023-04-16T02:18:15;7.90;99.90
5118;DHT22;2578;51.622;7.046;2023-04-16T02:20:45;9.40;99.90
5118;DHT22;2578;51.622;7.046;2023-04-16T02:23:11;9.10;99.90
5118;DHT22;2578;51.622;7.046;2023-04-16T02:25:43;7.80;99.90
5118;DHT22;2578;51.622;7.046;2023-04-16T02:28:14;7.90;99.90
5118;DHT22;2578;51.622;7.046;2023-04-16T02:30:40;8.10;99.90
5118;DHT22;2578;51.622;7.046;2023-04-16T02:33:09;9.50;99.90
5118;DHT22;2578;51.622;7.046;2023-04-16T02:35:36;8.00;99.90
5118;DHT22;2578;51.622;7.046;2023-04-16T02:38:02;7.90;99.90
5118;DHT22;2578;51.622;7.046;2023-04-16T02:40:29;8.60;99.90
5118;DHT22;2578;51.622;7.046;2023-04-16T02:42:55;7.90;99.90
5118;DHT22;2578;51.622;7.046;2023-04-16T02:45:21;7.90;99.90
5118;DHT22;2578;51.622;7.046;2023-04-16T02:47:47;7.90;99.90
5118;DHT22;2578;51.622;7.046;2023-04-16T02:50:13;7.90;99.90
5118;DHT22;2578;51.622;7.046;2023-04-16T02:52:39;8.00;99.90
5118;DHT22;2578;51.622;7.046;2023-04-16T02:55:05;7.90;99.90
5118;DHT22;2578;51.622;7.046;2023-04-16T02:57:31;7.90;99.90
5118;DHT22;2578;51.622;7.046;2023-04-16T02:59:56;8.00;99.90
5118;DHT22;2578;51.622;7.046;2023-04-16T03:02:22;7.90;99.90
5118;DHT22;2578;51.622;7.046;2023-04-16T03:04:48;8.70;99.90
5118;DHT22;2578;51.622;7.046;2023-04-16T03:07:13;10.00;99.90
5118;DHT22;2578;51.622;7.046;2023-04-16T03:09:39;8.00;99.90
5118;DHT22;2578;51.622;7.046;2023-04-16T03:12:05;10.00;99.90
5118;DHT22;2578;51.622;7.046;2023-04-16T03:14:30;8.80;99.90
5118;DHT22;2578;51.622;7.046;2023-04-16T03:16:57;8.00;99.90
5118;DHT22;2578;51.622;7.046;2023-04-16T03:19:23;8.00;99.90
5118;DHT22;2578;51.622;7.046;2023-04-16T03:21:48;8.00;99.90
5118;DHT22;2578;51.622;7.046;2023-04-16T03:24:14;8.90;99.90
5118;DHT22;2578;51.622;7.046;2023-04-16T03:26:40;8.00;99.90
5118;DHT22;2578;51.622;7.046;2023-04-16T03:29:06;8.00;99.90
5118;DHT22;2578;51.622;7.046;2023-04-16T03:31:31;8.10;99.90
5118;DHT22;2578;51.622;7.046;2023-04-16T03:33:57;8.00;99.90
5118;DHT22;2578;51.622;7.046;2023-04-16T03:36:22;8.00;99.90
5118;DHT22;2578;51.622;7.046;2023-04-16T03:38:48;8.00;99.90
5118;DHT22;2578;51.622;7.046;2023-04-16T03:41:14;8.00;99.90
5118;DHT22;2578;51.622;7.046;2023-04-16T03:43:40;8.00;99.90
5118;DHT22;2578;51.622;7.046;2023-04-16T03:46:05;8.00;99.90
5118;DHT22;2578;51.622;7.046;2023-04-16T03:48:31;8.00;99.90
5118;DHT22;2578;51.622;7.046;2023-04-16T03:50:57;8.00;99.90
5118;DHT22;2578;51.622;7.046;2023-04-16T03:53:23;8.00;99.90
5118;DHT22;2578;51.622;7.046;2023-04-16T03:55:49;8.00;99.90
5118;DHT22;2578;51.622;7.046;2023-04-16T03:58:19;8.00;99.90
5118;DHT22;2578;51.622;7.046;2023-04-16T04:00:44;8.00;99.90
5118;DHT22;2578;51.622;7.046;2023-04-16T04:03:10;9.60;99.90
5118;DHT22;2578;51.622;7.046;2023-04-16T04:05:38;8.50;99.90
5118;DHT22;2578;51.622;7.046;2023-04-16T04:10:33;8.10;99.90
5118;DHT22;2578;51.622;7.046;2023-04-16T04:13:04;8.10;99.90
5118;DHT22;2578;51.622;7.046;2023-04-16T04:15:30;8.90;99.90
5118;DHT22;2578;51.622;7.046;2023-04-16T04:17:56;8.10;99.90
5118;DHT22;2578;51.622;7.046;2023-04-16T04:20:22;8.50;99.90
5118;DHT22;2578;51.622;7.046;2023-04-16T04:22:49;8.70;99.90
5118;DHT22;2578;51.622;7.046;2023-04-16T04:25:15;8.90;99.90
5118;DHT22;2578;51.622;7.046;2023-04-16T04:27:42;8.10;99.90
5118;DHT22;2578;51.622;7.046;2023-04-16T04:30:08;8.90;99.90
5118;DHT22;2578;51.622;7.046;2023-04-16T04:32:34;8.10;99.90
5118;DHT22;2578;51.622;7.046;2023-04-16T04:35:01;8.50;99.90
5118;DHT22;2578;51.622;7.046;2023-04-16T04:37:27;8.30;99.90
5118;DHT22;2578;51.622;7.046;2023-04-16T04:39:52;8.10;99.90
5118;DHT22;2578;51.622;7.046;2023-04-16T04:42:19;8.10;99.90
5118;DHT22;2578;51.622;7.046;2023-04-16T04:44:45;8.10;99.90
5118;DHT22;2578;51.622;7.046;2023-04-16T04:47:11;8.10;99.90
5118;DHT22;2578;51.622;7.046;2023-04-16T04:49:37;8.40;99.90
5118;DHT22;2578;51.622;7.046;2023-04-16T04:52:03;8.10;99.90
5118;DHT22;2578;51.622;7.046;2023-04-16T04:54:30;8.10;99.90
5118;DHT22;2578;51.622;7.046;2023-04-16T04:56:56;8.10;99.90
5118;DHT22;2578;51.622;7.046;2023-04-16T04:59:22;8.20;99.90
5118;DHT22;2578;51.622;7.046;2023-04-16T05:01:48;8.10;99.90
5118;DHT22;2578;51.622;7.046;2023-04-16T05:04:13;8.10;99.90
5118;DHT22;2578;51.622;7.046;2023-04-16T05:06:39;8.20;99.90
5118;DHT22;2578;51.622;7.046;2023-04-16T05:09:05;8.20;99.90
5118;DHT22;2578;51.622;7.046;2023-04-16T05:11:32;8.20;99.90
5118;DHT22;2578;51.622;7.046;2023-04-16T05:13:58;8.20;99.90
5118;DHT22;2578;51.622;7.046;2023-04-16T05:16:24;8.20;99.90
5118;DHT22;2578;51.622;7.046;2023-04-16T05:18:49;8.20;99.90
5118;DHT22;2578;51.622;7.046;2023-04-16T05:21:15;8.20;99.90
5118;DHT22;2578;51.622;7.046;2023-04-16T05:23:40;8.70;99.90
5118;DHT22;2578;51.622;7.046;2023-04-16T05:26:06;8.20;99.90
5118;DHT22;2578;51.622;7.046;2023-04-16T05:28:32;8.20;99.90
5118;DHT22;2578;51.622;7.046;2023-04-16T05:30:58;8.20;99.90
5118;DHT22;2578;51.622;7.046;2023-04-16T05:33:23;9.40;99.90
5118;DHT22;2578;51.622;7.046;2023-04-16T05:35:49;8.20;99.90
5118;DHT22;2578;51.622;7.046;2023-04-16T05:38:14;8.20;99.90
5118;DHT22;2578;51.622;7.046;2023-04-16T05:40:40;8.20;99.90
5118;DHT22;2578;51.622;7.046;2023-04-16T05:43:05;8.70;99.90
5118;DHT22;2578;51.622;7.046;2023-04-16T05:45:31;9.50;99.90
5118;DHT22;2578;51.622;7.046;2023-04-16T05:47:57;8.30;99.90
5118;DHT22;2578;51.622;7.046;2023-04-16T05:52:49;8.30;99.90
5118;DHT22;2578;51.622;7.046;2023-04-16T05:55:15;8.40;99.90
5118;DHT22;2578;51.622;7.046;2023-04-16T05:57:40;8.30;99.90
5118;DHT22;2578;51.622;7.046;2023-04-16T06:00:06;8.50;99.90
5118;DHT22;2578;51.622;7.046;2023-04-16T06:02:32;8.30;99.90
5118;DHT22;2578;51.622;7.046;2023-04-16T06:04:58;8.40;99.90
5118;DHT22;2578;51.622;7.046;2023-04-16T06:07:23;8.40;99.90
5118;DHT22;2578;51.622;7.046;2023-04-16T06:09:49;9.60;99.90
5118;DHT22;2578;51.622;7.046;2023-04-16T06:12:15;9.10;99.90
5118;DHT22;2578;51.622;7.046;2023-04-16T06:14:40;9.80;99.90
5118;DHT22;2578;51.622;7.046;2023-04-16T06:17:06;8.50;99.90
5118;DHT22;2578;51.622;7.046;2023-04-16T06:19:31;8.50;99.90
5118;DHT22;2578;51.622;7.046;2023-04-16T06:21:57;9.70;99.90
5118;DHT22;2578;51.622;7.046;2023-04-16T06:24:23;10.70;99.90
5118;DHT22;2578;51.622;7.046;2023-04-16T06:26:48;8.50;99.90
5118;DHT22;2578;51.622;7.046;2023-04-16T06:29:14;8.50;99.90
5118;DHT22;2578;51.622;7.046;2023-04-16T06:31:39;8.60;99.90
5118;DHT22;2578;51.622;7.046;2023-04-16T06:36:31;8.60;99.90
5118;DHT22;2578;51.622;7.046;2023-04-16T06:38:57;8.60;99.90
5118;DHT22;2578;51.622;7.046;2023-04-16T06:41:22;9.60;99.90
5118;DHT22;2578;51.622;7.046;2023-04-16T06:43:50;8.60;99.90
5118;DHT22;2578;51.622;7.046;2023-04-16T06:46:15;8.70;99.90
5118;DHT22;2578;51.622;7.046;2023-04-16T06:48:41;8.80;99.90
5118;DHT22;2578;51.622;7.046;2023-04-16T06:51:07;8.70;99.90
5118;DHT22;2578;51.622;7.046;2023-04-16T06:53:33;9.70;99.90
5118;DHT22;2578;51.622;7.046;2023-04-16T06:55:59;9.90;99.90
5118;DHT22;2578;51.622;7.046;2023-04-16T06:58:24;8.80;99.90
5118;DHT22;2578;51.622;7.046;2023-04-16T07:00:50;8.90;99.90
5118;DHT22;2578;51.622;7.046;2023-04-16T07:03:16;10.10;99.90
5118;DHT22;2578;51.622;7.046;2023-04-16T07:05:41;8.90;99.90
5118;DHT22;2578;51.622;7.046;2023-04-16T07:08:07;9.10;99.90
5118;DHT22;2578;51.622;7.046;2023-04-16T07:10:32;9.00;99.90
5118;DHT22;2578;51.622;7.046;2023-04-16T07:12:58;8.90;99.90
5118;DHT22;2578;51.622;7.046;2023-04-16T07:15:26;9.00;99.90
5118;DHT22;2578;51.622;7.046;2023-04-16T07:17:51;9.10;99.90
5118;DHT22;2578;51.622;7.046;2023-04-16T07:20:17;9.20;99.90
5118;DHT22;2578;51.622;7.046;2023-04-16T07:22:42;9.10;99.90
5118;DHT22;2578;51.622;7.046;2023-04-16T07:25:08;9.10;99.90
5118;DHT22;2578;51.622;7.046;2023-04-16T07:27:34;9.20;99.90
5118;DHT22;2578;51.622;7.046;2023-04-16T07:29:59;9.20;1.00
5118;DHT22;2578;51.622;7.046;2023-04-16T07:34:51;9.30;1.00
5118;DHT22;2578;51.622;7.046;2023-04-16T07:37:17;9.40;99.90
5118;DHT22;2578;51.622;7.046;2023-04-16T07:39:42;10.10;1.00
5118;DHT22;2578;51.622;7.046;2023-04-16T07:42:08;9.40;99.90
5118;DHT22;2578;51.622;7.046;2023-04-16T07:44:34;9.40;99.90
5118;DHT22;2578;51.622;7.046;2023-04-16T07:46:59;9.50;99.90
5118;DHT22;2578;51.622;7.046;2023-04-16T07:49:25;9.90;99.90
5118;DHT22;2578;51.622;7.046;2023-04-16T07:51:51;10.00;99.90
5118;DHT22;2578;51.622;7.046;2023-04-16T07:54:16;9.80;99.90
5118;DHT22;2578;51.622;7.046;2023-04-16T07:56:42;9.90;99.90
5118;DHT22;2578;51.622;7.046;2023-04-16T07:59:07;10.00;99.90
5118;DHT22;2578;51.622;7.046;2023-04-16T08:01:33;9.90;99.90
5118;DHT22;2578;51.622;7.046;2023-04-16T08:03:58;10.60;99.90
5118;DHT22;2578;51.622;7.046;2023-04-16T08:06:24;10.00;99.90
5118;DHT22;2578;51.622;7.046;2023-04-16T08:08:51;10.00;99.90
5118;DHT22;2578;51.622;7.046;2023-04-16T08:11:16;10.00;99.90
5118;DHT22;2578;51.622;7.046;2023-04-16T08:13:42;10.00;99.90
5118;DHT22;2578;51.622;7.046;2023-04-16T08:16:07;10.20;99.90
5118;DHT22;2578;51.622;7.046;2023-04-16T08:18:33;10.00;99.90
5118;DHT22;2578;51.622;7.046;2023-04-16T08:20:59;10.10;99.90
5118;DHT22;2578;51.622;7.046;2023-04-16T08:23:24;10.30;99.90
5118;DHT22;2578;51.622;7.046;2023-04-16T08:25:50;10.40;99.90
5118;DHT22;2578;51.622;7.046;2023-04-16T08:28:16;10.60;99.90
5118;DHT22;2578;51.622;7.046;2023-04-16T08:30:41;10.70;99.90
5118;DHT22;2578;51.622;7.046;2023-04-16T08:33:07;10.80;1.00
5118;DHT22;2578;51.622;7.046;2023-04-16T08:35:32;10.80;1.00
5118;DHT22;2578;51.622;7.046;2023-04-16T08:41:21;10.90;1.00
5118;DHT22;2578;51.622;7.046;2023-04-16T08:43:49;10.60;99.90
5118;DHT22;2578;51.622;7.046;2023-04-16T08:46:16;10.60;20.80
5118;DHT22;2578;51.622;7.046;2023-04-16T08:48:47;10.60;31.90
5118;DHT22;2578;51.622;7.046;2023-04-16T08:51:14;10.70;19.50
5118;DHT22;2578;51.622;7.046;2023-04-16T08:53:53;10.80;26.70
5118;DHT22;2578;51.622;7.046;2023-04-16T08:56:24;10.90;99.90
5118;DHT22;2578;51.622;7.046;2023-04-16T08:58:53;10.90;99.90
5118;DHT22;2578;51.622;7.046;2023-04-16T09:01:19;11.00;36.10
5118;DHT22;2578;51.622;7.046;2023-04-16T09:03:48;11.10;99.90
5118;DHT22;2578;51.622;7.046;2023-04-16T09:06:15;11.60;99.90
5118;DHT22;2578;51.622;7.046;2023-04-16T09:08:43;11.60;99.90
5118;DHT22;2578;51.622;7.046;2023-04-16T09:11:10;11.80;99.90
5118;DHT22;2578;51.622;7.046;2023-04-16T09:13:37;12.10;99.90
5118;DHT22;2578;51.622;7.046;2023-04-16T09:16:03;12.00;99.90
5118;DHT22;2578;51.622;7.046;2023-04-16T09:18:30;11.90;99.90
5118;DHT22;2578;51.622;7.046;2023-04-16T09:20:56;11.60;7.10
5118;DHT22;2578;51.622;7.046;2023-04-16T09:23:22;11.50;16.90
5118;DHT22;2578;51.622;7.046;2023-04-16T09:25:47;11.50;10.40
5118;DHT22;2578;51.622;7.046;2023-04-16T09:28:51;11.40;18.70
5118;DHT22;2578;51.622;7.046;2023-04-16T09:31:17;11.30;99.90
5118;DHT22;2578;51.622;7.046;2023-04-16T09:34:06;11.50;99.90
5118;DHT22;2578;51.622;7.046;2023-04-16T09:36:33;11.40;6.10
5118;DHT22;2578;51.622;7.046;2023-04-16T09:38:59;11.40;11.40
5118;DHT22;2578;51.622;7.046;2023-04-16T09:41:29;11.60;1.00
5118;DHT22;2578;51.622;7.046;2023-04-16T09:43:59;11.70;1.00
5118;DHT22;2578;51.622;7.046;2023-04-16T09:46:30;12.10;1.00
5118;DHT22;2578;51.622;7.046;2023-04-16T09:48:56;12.20;1.00
5118;DHT22;2578;51.622;7.046;2023-04-16T09:51:22;12.20;1.00
5118;DHT22;2578;51.622;7.046;2023-04-16T09:53:51;12.50;1.50
5118;DHT22;2578;51.622;7.046;2023-04-16T09:56:23;12.10;1.00
5118;DHT22;2578;51.622;7.046;2023-04-16T09:58:50;12.00;1.00
5118;DHT22;2578;51.622;7.046;2023-04-16T10:01:20;12.20;1.00
5118;DHT22;2578;51.622;7.046;2023-04-16T10:03:48;12.30;5.00
5118;DHT22;2578;51.622;7.046;2023-04-16T10:06:16;12.40;1.00
5118;DHT22;2578;51.622;7.046;2023-04-16T10:08:49;12.30;1.00
5118;DHT22;2578;51.622;7.046;2023-04-16T10:11:16;12.00;1.00
5118;DHT22;2578;51.622;7.046;2023-04-16T10:13:42;12.10;1.00
5118;DHT22;2578;51.622;7.046;2023-04-16T10:16:11;12.20;91.80
5118;DHT22;2578;51.622;7.046;2023-04-16T10:18:44;12.20;1.00
5118;DHT22;2578;51.622;7.046;2023-04-16T10:21:10;12.20;1.00
5118;DHT22;2578;51.622;7.046;2023-04-16T10:23:41;12.20;1.50
5118;DHT22;2578;51.622;7.046;2023-04-16T10:26:07;12.20;1.00
5118;DHT22;2578;51.622;7.046;2023-04-16T10:28:33;12.40;1.00
5118;DHT22;2578;51.622;7.046;2023-04-16T10:31:04;12.70;1.00
5118;DHT22;2578;51.622;7.046;2023-04-16T10:33:32;12.90;1.00
5118;DHT22;2578;51.622;7.046;2023-04-16T10:36:22;12.80;1.00
5118;DHT22;2578;51.622;7.046;2023-04-16T10:38:52;12.80;1.00
5118;DHT22;2578;51.622;7.046;2023-04-16T10:41:21;12.60;1.00
5118;DHT22;2578;51.622;7.046;2023-04-16T10:43:50;12.40;1.00
5118;DHT22;2578;51.622;7.046;2023-04-16T10:46:30;12.60;1.00
5118;DHT22;2578;51.622;7.046;2023-04-16T10:48:59;12.60;1.00
5118;DHT22;2578;51.622;7.046;2023-04-16T10:51:33;12.70;1.00
5118;DHT22;2578;51.622;7.046;2023-04-16T10:54:20;12.90;1.00
5118;DHT22;2578;51.622;7.046;2023-04-16T10:56:48;13.30;1.00
5118;DHT22;2578;51.622;7.046;2023-04-16T10:59:17;13.40;1.00
5118;DHT22;2578;51.622;7.046;2023-04-16T11:01:46;13.50;1.00
5118;DHT22;2578;51.622;7.046;2023-04-16T11:07:17;14.80;1.00
5118;DHT22;2578;51.622;7.046;2023-04-16T11:12:15;14.60;1.00
5118;DHT22;2578;51.622;7.046;2023-04-16T11:14:49;14.80;1.00
5118;DHT22;2578;51.622;7.046;2023-04-16T11:17:16;14.20;1.00
5118;DHT22;2578;51.622;7.046;2023-04-16T11:19:42;14.30;1.00
5118;DHT22;2578;51.622;7.046;2023-04-16T11:22:11;13.90;1.00
5118;DHT22;2578;51.622;7.046;2023-04-16T11:24:36;13.70;1.00
5118;DHT22;2578;51.622;7.046;2023-04-16T11:27:04;13.60;1.00
5118;DHT22;2578;51.622;7.046;2023-04-16T11:29:30;13.60;1.00
5118;DHT22;2578;51.622;7.046;2023-04-16T11:31:56;13.50;1.00
5118;DHT22;2578;51.622;7.046;2023-04-16T11:34:21;13.50;1.00
5118;DHT22;2578;51.622;7.046;2023-04-16T11:36:49;13.40;1.00
5118;DHT22;2578;51.622;7.046;2023-04-16T11:39:15;13.40;1.00
5118;DHT22;2578;51.622;7.046;2023-04-16T11:41:44;13.20;1.00
5118;DHT22;2578;51.622;7.046;2023-04-16T11:44:26;13.20;1.00
5118;DHT22;2578;51.622;7.046;2023-04-16T11:46:53;13.40;1.00
5118;DHT22;2578;51.622;7.046;2023-04-16T11:49:31;13.40;1.00
5118;DHT22;2578;51.622;7.046;2023-04-16T11:51:57;13.60;1.00
5118;DHT22;2578;51.622;7.046;2023-04-16T11:54:23;13.80;1.00
5118;DHT22;2578;51.622;7.046;2023-04-16T11:56:51;14.00;1.00
5118;DHT22;2578;51.622;7.046;2023-04-16T11:59:19;14.00;1.00
5118;DHT22;2578;51.622;7.046;2023-04-16T12:01:52;14.10;1.00
5118;DHT22;2578;51.622;7.046;2023-04-16T12:04:21;13.90;1.00
5118;DHT22;2578;51.622;7.046;2023-04-16T12:07:09;13.50;1.00
5118;DHT22;2578;51.622;7.046;2023-04-16T12:09:36;13.50;1.00
5118;DHT22;2578;51.622;7.046;2023-04-16T12:12:03;13.40;1.00
5118;DHT22;2578;51.622;7.046;2023-04-16T12:14:29;13.30;1.00
5118;DHT22;2578;51.622;7.046;2023-04-16T12:17:15;13.20;1.00
5118;DHT22;2578;51.622;7.046;2023-04-16T12:19:59;13.20;1.00
5118;DHT22;2578;51.622;7.046;2023-04-16T12:22:33;13.20;1.00
5118;DHT22;2578;51.622;7.046;2023-04-16T12:25:09;13.30;1.00
5118;DHT22;2578;51.622;7.046;2023-04-16T12:27:45;13.10;1.00
5118;DHT22;2578;51.622;7.046;2023-04-16T12:30:12;13.00;1.00
5118;DHT22;2578;51.622;7.046;2023-04-16T12:35:04;12.50;1.00
5118;DHT22;2578;51.622;7.046;2023-04-16T12:37:30;13.30;1.00
5118;DHT22;2578;51.622;7.046;2023-04-16T12:39:56;13.40;1.00
5118;DHT22;2578;51.622;7.046;2023-04-16T12:42:21;13.30;1.00
5118;DHT22;2578;51.622;7.046;2023-04-16T12:44:47;13.20;1.00
5118;DHT22;2578;51.622;7.046;2023-04-16T12:47:12;13.40;1.00
5118;DHT22;2578;51.622;7.046;2023-04-16T12:49:38;13.50;1.00
5118;DHT22;2578;51.622;7.046;2023-04-16T12:52:04;13.60;1.00
5118;DHT22;2578;51.622;7.046;2023-04-16T12:54:30;13.60;1.00
5118;DHT22;2578;51.622;7.046;2023-04-16T12:56:56;13.50;1.00
5118;DHT22;2578;51.622;7.046;2023-04-16T12:59:22;13.40;1.00
5118;DHT22;2578;51.622;7.046;2023-04-16T13:01:48;13.30;1.00
5118;DHT22;2578;51.622;7.046;2023-04-16T13:04:14;13.20;1.00
5118;DHT22;2578;51.622;7.046;2023-04-16T13:06:39;13.30;1.00
5118;DHT22;2578;51.622;7.046;2023-04-16T13:09:05;13.30;1.00
5118;DHT22;2578;51.622;7.046;2023-04-16T13:11:31;13.40;1.00
5118;DHT22;2578;51.622;7.046;2023-04-16T13:13:57;13.30;1.00
5118;DHT22;2578;51.622;7.046;2023-04-16T13:16:23;15.10;1.00
5118;DHT22;2578;51.622;7.046;2023-04-16T13:18:49;13.70;1.00
5118;DHT22;2578;51.622;7.046;2023-04-16T13:21:14;14.10;1.00
5118;DHT22;2578;51.622;7.046;2023-04-16T13:23:40;14.70;1.00
5118;DHT22;2578;51.622;7.046;2023-04-16T13:26:06;15.40;1.00
5118;DHT22;2578;51.622;7.046;2023-04-16T13:28:31;15.30;1.00
5118;DHT22;2578;51.622;7.046;2023-04-16T13:30:57;14.80;1.00
5118;DHT22;2578;51.622;7.046;2023-04-16T13:33:23;14.70;1.00
5118;DHT22;2578;51.622;7.046;2023-04-16T13:35:49;14.00;1.00
5118;DHT22;2578;51.622;7.046;2023-04-16T13:38:15;13.40;1.00
5118;DHT22;2578;51.622;7.046;2023-04-16T13:40:41;13.40;1.00
5118;DHT22;2578;51.622;7.046;2023-04-16T13:43:07;13.20;1.00
5118;DHT22;2578;51.622;7.046;2023-04-16T13:45:33;13.20;1.00
5118;DHT22;2578;51.622;7.046;2023-04-16T13:47:58;13.30;1.00
5118;DHT22;2578;51.622;7.046;2023-04-16T13:50:24;13.30;1.00
5118;DHT22;2578;51.622;7.046;2023-04-16T13:52:50;13.30;1.00
5118;DHT22;2578;51.622;7.046;2023-04-16T13:55:16;13.30;1.00
5118;DHT22;2578;51.622;7.046;2023-04-16T13:57:45;13.40;1.00
5118;DHT22;2578;51.622;7.046;2023-04-16T14:00:12;13.60;1.00
5118;DHT22;2578;51.622;7.046;2023-04-16T14:02:39;13.60;1.00
5118;DHT22;2578;51.622;7.046;2023-04-16T14:05:06;13.60;1.00
5118;DHT22;2578;51.622;7.046;2023-04-16T14:07:32;13.70;1.00
5118;DHT22;2578;51.622;7.046;2023-04-16T14:09:57;13.70;1.00
5118;DHT22;2578;51.622;7.046;2023-04-16T14:12:23;13.80;1.00
5118;DHT22;2578;51.622;7.046;2023-04-16T14:14:49;13.90;1.00
5118;DHT22;2578;51.622;7.046;2023-04-16T14:17:14;14.00;1.00
5118;DHT22;2578;51.622;7.046;2023-04-16T14:19:40;14.00;1.00
5118;DHT22;2578;51.622;7.046;2023-04-16T14:22:06;14.00;1.00
5118;DHT22;2578;51.622;7.046;2023-04-16T14:24:32;14.00;1.00
5118;DHT22;2578;51.622;7.046;2023-04-16T14:26:57;14.00;1.00
5118;DHT22;2578;51.622;7.046;2023-04-16T14:29:23;14.00;1.00
5118;DHT22;2578;51.622;7.046;2023-04-16T14:31:48;14.00;1.00
5118;DHT22;2578;51.622;7.046;2023-04-16T14:34:14;14.10;1.00
5118;DHT22;2578;51.622;7.046;2023-04-16T14:36:41;14.30;1.00
5118;DHT22;2578;51.622;7.046;2023-04-16T14:39:07;14.20;1.00
5118;DHT22;2578;51.622;7.046;2023-04-16T14:41:32;14.50;1.00
5118;DHT22;2578;51.622;7.046;2023-04-16T14:43:58;14.70;1.00
5118;DHT22;2578;51.622;7.046;2023-04-16T14:46:24;15.10;1.00
5118;DHT22;2578;51.622;7.046;2023-04-16T14:48:51;15.10;1.00
5118;DHT22;2578;51.622;7.046;2023-04-16T14:51:17;15.20;1.00
5118;DHT22;2578;51.622;7.046;2023-04-16T14:53:43;15.40;1.00
5118;DHT22;2578;51.622;7.046;2023-04-16T14:56:09;15.20;1.00
5118;DHT22;2578;51.622;7.046;2023-04-16T14:58:35;15.30;1.00
5118;DHT22;2578;51.622;7.046;2023-04-16T15:01:01;15.60;1.00
5118;DHT22;2578;51.622;7.046;2023-04-16T15:03:29;15.90;1.00
5118;DHT22;2578;51.622;7.046;2023-04-16T15:05:55;16.00;1.00
5118;DHT22;2578;51.622;7.046;2023-04-16T15:08:22;16.10;1.00
5118;DHT22;2578;51.622;7.046;2023-04-16T15:10:48;16.00;1.00
5118;DHT22;2578;51.622;7.046;2023-04-16T15:13:13;16.00;1.00
5118;DHT22;2578;51.622;7.046;2023-04-16T15:15:39;16.00;1.00
5118;DHT22;2578;51.622;7.046;2023-04-16T15:18:05;16.00;1.00
5118;DHT22;2578;51.622;7.046;2023-04-16T15:20:31;15.70;1.00
5118;DHT22;2578;51.622;7.046;2023-04-16T15:22:57;15.50;1.00
5118;DHT22;2578;51.622;7.046;2023-04-16T15:25:22;15.30;1.00
5118;DHT22;2578;51.622;7.046;2023-04-16T15:27:50;15.20;1.00
5118;DHT22;2578;51.622;7.046;2023-04-16T15:30:15;15.10;1.00
5118;DHT22;2578;51.622;7.046;2023-04-16T15:32:45;15.00;1.00
5118;DHT22;2578;51.622;7.046;2023-04-16T15:35:12;15.00;1.00
5118;DHT22;2578;51.622;7.046;2023-04-16T15:37:37;14.60;1.00
5118;DHT22;2578;51.622;7.046;2023-04-16T15:40:05;14.50;1.00
5118;DHT22;2578;51.622;7.046;2023-04-16T15:42:32;14.50;1.00
5118;DHT22;2578;51.622;7.046;2023-04-16T15:45:19;14.40;1.00
5118;DHT22;2578;51.622;7.046;2023-04-16T15:47:45;14.50;1.00
5118;DHT22;2578;51.622;7.046;2023-04-16T15:50:18;14.50;1.00
5118;DHT22;2578;51.622;7.046;2023-04-16T15:52:45;14.40;1.00
5118;DHT22;2578;51.622;7.046;2023-04-16T15:55:11;14.40;1.00
5118;DHT22;2578;51.622;7.046;2023-04-16T15:57:37;14.30;1.00
5118;DHT22;2578;51.622;7.046;2023-04-16T16:00:03;14.20;1.00
5118;DHT22;2578;51.622;7.046;2023-04-16T16:02:45;14.00;1.00
5118;DHT22;2578;51.622;7.046;2023-04-16T16:05:14;13.90;1.00
5118;DHT22;2578;51.622;7.046;2023-04-16T16:07:41;13.80;1.00
5118;DHT22;2578;51.622;7.046;2023-04-16T16:10:08;13.70;1.00
5118;DHT22;2578;51.622;7.046;2023-04-16T16:12:34;13.60;1.00
5118;DHT22;2578;51.622;7.046;2023-04-16T16:15:00;13.60;1.00
5118;DHT22;2578;51.622;7.046;2023-04-16T16:17:27;13.40;1.00
5118;DHT22;2578;51.622;7.046;2023-04-16T16:19:53;13.40;1.00
5118;DHT22;2578;51.622;7.046;2023-04-16T16:22:20;13.40;1.00
5118;DHT22;2578;51.622;7.046;2023-04-16T16:24:48;13.50;1.00
5118;DHT22;2578;51.622;7.046;2023-04-16T16:27:16;13.40;1.00
5118;DHT22;2578;51.622;7.046;2023-04-16T16:29:41;13.40;1.00
5118;DHT22;2578;51.622;7.046;2023-04-16T16:32:07;13.40;1.00
5118;DHT22;2578;51.622;7.046;2023-04-16T16:34:33;13.40;1.00
5118;DHT22;2578;51.622;7.046;2023-04-16T16:36:59;13.50;1.00
5118;DHT22;2578;51.622;7.046;2023-04-16T16:39:24;13.50;1.00
5118;DHT22;2578;51.622;7.046;2023-04-16T16:41:50;13.60;1.00